sensor_id;sensor_type;location;lat;lon;timestamp;temperature;humidity
3037;DHT22;1528;52.550;13.408;2023-02-11T00:00:24;5.70;40.00
3037;DHT22;1528;52.550;13.408;2023-02-11T00:03:10;5.60;40.40
3037;DHT22;1528;52.550;13.408;2023-02-11T00:05:57;5.60;40.40
3037;DHT22;1528;52.550;13.408;2023-02-11T00:08:45;5.50;41.10
3037;DHT22;1528;52.550;13.408;2023-02-11T00:11:30;5.50;41.30
3037;DHT22;1528;52.550;13.408;2023-02-11T00:14:15;5.60;40.70
3037;DHT22;1528;52.550;13.408;2023-02-11T00:17:01;5.60;40.80
3037;DHT22;1528;52.550;13.408;2023-02-11T00:19:48;5.50;41.30
3037;DHT22;1528;52.550;13.408;2023-02-11T00:22:34;5.50;41.50
3037;DHT22;1528;52.550;13.408;2023-02-11T00:25:21;5.50;41.80
3037;DHT22;1528;52.550;13.408;2023-02-11T00:28:07;5.50;42.00
3037;DHT22;1528;52.550;13.408;2023-02-11T00:30:56;5.50;41.90
3037;DHT22;1528;52.550;13.408;2023-02-11T00:33:41;5.60;42.00
3037;DHT22;1528;52.550;13.408;2023-02-11T00:36:28;5.50;42.50
3037;DHT22;1528;52.550;13.408;2023-02-11T00:39:14;5.50;42.50
3037;DHT22;1528;52.550;13.408;2023-02-11T00:42:01;5.50;42.80
3037;DHT22;1528;52.550;13.408;2023-02-11T00:44:46;5.50;43.50
3037;DHT22;1528;52.550;13.408;2023-02-11T00:47:32;5.50;43.50
3037;DHT22;1528;52.550;13.408;2023-02-11T00:50:17;5.50;43.50
3037;DHT22;1528;52.550;13.408;2023-02-11T00:53:03;5.50;44.10
3037;DHT22;1528;52.550;13.408;2023-02-11T00:55:49;5.70;43.40
3037;DHT22;1528;52.550;13.408;2023-02-11T00:58:36;5.60;43.70
3037;DHT22;1528;52.550;13.408;2023-02-11T01:01:22;5.60;44.60
3037;DHT22;1528;52.550;13.408;2023-02-11T01:04:08;5.70;44.50
3037;DHT22;1528;52.550;13.408;2023-02-11T01:06:53;5.70;44.70
3037;DHT22;1528;52.550;13.408;2023-02-11T01:09:39;5.60;44.80
3037;DHT22;1528;52.550;13.408;2023-02-11T01:12:25;5.60;45.00
3037;DHT22;1528;52.550;13.408;2023-02-11T01:15:13;5.60;45.90
3037;DHT22;1528;52.550;13.408;2023-02-11T01:17:58;5.60;45.80
3037;DHT22;1528;52.550;13.408;2023-02-11T01:20:44;5.60;47.40
3037;DHT22;1528;52.550;13.408;2023-02-11T01:23:30;5.60;49.30
3037;DHT22;1528;52.550;13.408;2023-02-11T01:26:16;5.70;50.30
3037;DHT22;1528;52.550;13.408;2023-02-11T01:29:01;5.60;51.70
3037;DHT22;1528;52.550;13.408;2023-02-11T01:31:48;5.60;53.00
3037;DHT22;1528;52.550;13.408;2023-02-11T01:34:34;5.60;52.30
3037;DHT22;1528;52.550;13.408;2023-02-11T01:37:19;5.60;50.50
3037;DHT22;1528;52.550;13.408;2023-02-11T01:40:07;5.60;49.40
3037;DHT22;1528;52.550;13.408;2023-02-11T01:42:55;5.60;48.50
3037;DHT22;1528;52.550;13.408;2023-02-11T01:45:57;5.70;48.10
3037;DHT22;1528;52.550;13.408;2023-02-11T01:48:47;5.70;48.40
3037;DHT22;1528;52.550;13.408;2023-02-11T01:51:37;5.70;48.10
3037;DHT22;1528;52.550;13.408;2023-02-11T01:54:26;5.70;48.00
3037;DHT22;1528;52.550;13.408;2023-02-11T01:57:33;5.70;48.60
3037;DHT22;1528;52.550;13.408;2023-02-11T02:00:22;5.90;48.30
3037;DHT22;1528;52.550;13.408;2023-02-11T02:03:13;5.80;48.90
3037;DHT22;1528;52.550;13.408;2023-02-11T02:06:05;5.90;48.60
3037;DHT22;1528;52.550;13.408;2023-02-11T02:08:55;5.90;49.00
3037;DHT22;1528;52.550;13.408;2023-02-11T02:11:42;6.00;48.50
3037;DHT22;1528;52.550;13.408;2023-02-11T02:14:27;6.00;48.90
3037;DHT22;1528;52.550;13.408;2023-02-11T02:17:23;6.10;48.10
3037;DHT22;1528;52.550;13.408;2023-02-11T02:20:24;6.00;48.60
3037;DHT22;1528;52.550;13.408;2023-02-11T02:23:29;5.90;49.70
3037;DHT22;1528;52.550;13.408;2023-02-11T02:26:42;6.10;49.10
3037;DHT22;1528;52.550;13.408;2023-02-11T02:30:00;6.10;49.10
3037;DHT22;1528;52.550;13.408;2023-02-11T02:32:57;6.20;48.50
3037;DHT22;1528;52.550;13.408;2023-02-11T02:35:49;6.20;49.50
3037;DHT22;1528;52.550;13.408;2023-02-11T02:38:43;6.10;49.10
3037;DHT22;1528;52.550;13.408;2023-02-11T02:41:33;6.00;50.30
3037;DHT22;1528;52.550;13.408;2023-02-11T02:44:19;6.00;50.40
3037;DHT22;1528;52.550;13.408;2023-02-11T02:47:05;6.10;50.00
3037;DHT22;1528;52.550;13.408;2023-02-11T02:49:52;6.10;50.60
3037;DHT22;1528;52.550;13.408;2023-02-11T02:52:44;6.10;50.60
3037;DHT22;1528;52.550;13.408;2023-02-11T02:55:42;6.10;50.90
3037;DHT22;1528;52.550;13.408;2023-02-11T02:58:53;6.10;51.40
3037;DHT22;1528;52.550;13.408;2023-02-11T03:01:52;6.20;51.60
3037;DHT22;1528;52.550;13.408;2023-02-11T03:04:46;6.10;52.10
3037;DHT22;1528;52.550;13.408;2023-02-11T03:07:40;5.90;53.70
3037;DHT22;1528;52.550;13.408;2023-02-11T03:10:31;6.00;53.90
3037;DHT22;1528;52.550;13.408;2023-02-11T03:13:23;6.10;53.90
3037;DHT22;1528;52.550;13.408;2023-02-11T03:16:13;6.10;53.70
3037;DHT22;1528;52.550;13.408;2023-02-11T03:19:02;6.00;55.30
3037;DHT22;1528;52.550;13.408;2023-02-11T03:21:51;6.10;54.90
3037;DHT22;1528;52.550;13.408;2023-02-11T03:24:39;6.10;55.00
3037;DHT22;1528;52.550;13.408;2023-02-11T03:27:29;6.10;55.70
3037;DHT22;1528;52.550;13.408;2023-02-11T03:30:20;6.00;56.50
3037;DHT22;1528;52.550;13.408;2023-02-11T03:33:09;6.10;56.10
3037;DHT22;1528;52.550;13.408;2023-02-11T03:36:00;6.10;56.00
3037;DHT22;1528;52.550;13.408;2023-02-11T03:38:50;6.10;56.90
3037;DHT22;1528;52.550;13.408;2023-02-11T03:41:40;6.10;57.60
3037;DHT22;1528;52.550;13.408;2023-02-11T03:44:30;6.10;58.20
3037;DHT22;1528;52.550;13.408;2023-02-11T03:47:20;6.10;57.90
3037;DHT22;1528;52.550;13.408;2023-02-11T03:50:09;6.10;58.20
3037;DHT22;1528;52.550;13.408;2023-02-11T03:52:55;6.20;58.00
3037;DHT22;1528;52.550;13.408;2023-02-11T03:55:43;6.20;57.70
3037;DHT22;1528;52.550;13.408;2023-02-11T03:58:30;6.20;57.70
3037;DHT22;1528;52.550;13.408;2023-02-11T04:01:16;6.30;58.00
3037;DHT22;1528;52.550;13.408;2023-02-11T04:04:02;6.30;57.90
3037;DHT22;1528;52.550;13.408;2023-02-11T04:06:47;6.20;59.10
3037;DHT22;1528;52.550;13.408;2023-02-11T04:09:33;6.30;59.70
3037;DHT22;1528;52.550;13.408;2023-02-11T04:12:20;6.30;60.50
3037;DHT22;1528;52.550;13.408;2023-02-11T04:15:07;6.20;61.90
3037;DHT22;1528;52.550;13.408;2023-02-11T04:17:53;6.30;62.30
3037;DHT22;1528;52.550;13.408;2023-02-11T04:20:39;6.20;62.40
3037;DHT22;1528;52.550;13.408;2023-02-11T04:23:24;6.30;63.40
3037;DHT22;1528;52.550;13.408;2023-02-11T04:26:10;6.20;65.80
3037;DHT22;1528;52.550;13.408;2023-02-11T04:28:56;6.30;65.00
3037;DHT22;1528;52.550;13.408;2023-02-11T04:31:43;6.40;65.30
3037;DHT22;1528;52.550;13.408;2023-02-11T04:34:28;6.50;63.60
3037;DHT22;1528;52.550;13.408;2023-02-11T04:37:14;6.50;64.10
3037;DHT22;1528;52.550;13.408;2023-02-11T04:40:00;6.60;63.40
3037;DHT22;1528;52.550;13.408;2023-02-11T04:42:45;6.40;67.70
3037;DHT22;1528;52.550;13.408;2023-02-11T04:45:31;6.40;70.00
3037;DHT22;1528;52.550;13.408;2023-02-11T04:48:18;6.40;72.30
3037;DHT22;1528;52.550;13.408;2023-02-11T04:51:04;6.20;74.60
3037;DHT22;1528;52.550;13.408;2023-02-11T04:54:08;6.10;80.20
3037;DHT22;1528;52.550;13.408;2023-02-11T04:56:53;6.20;81.00
3037;DHT22;1528;52.550;13.408;2023-02-11T04:59:39;6.20;83.60
3037;DHT22;1528;52.550;13.408;2023-02-11T05:02:25;6.20;83.70
3037;DHT22;1528;52.550;13.408;2023-02-11T05:05:11;6.20;84.20
3037;DHT22;1528;52.550;13.408;2023-02-11T05:07:57;6.30;82.60
3037;DHT22;1528;52.550;13.408;2023-02-11T05:10:46;6.40;80.20
3037;DHT22;1528;52.550;13.408;2023-02-11T05:13:32;6.30;82.00
3037;DHT22;1528;52.550;13.408;2023-02-11T05:16:18;6.30;85.00
3037;DHT22;1528;52.550;13.408;2023-02-11T05:19:04;6.30;88.90
3037;DHT22;1528;52.550;13.408;2023-02-11T05:21:49;6.40;87.00
3037;DHT22;1528;52.550;13.408;2023-02-11T05:24:36;6.40;85.20
3037;DHT22;1528;52.550;13.408;2023-02-11T05:27:23;6.50;84.50
3037;DHT22;1528;52.550;13.408;2023-02-11T05:30:10;6.40;85.60
3037;DHT22;1528;52.550;13.408;2023-02-11T05:32:56;6.40;87.20
3037;DHT22;1528;52.550;13.408;2023-02-11T05:35:42;6.40;86.70
3037;DHT22;1528;52.550;13.408;2023-02-11T05:38:27;6.40;88.90
3037;DHT22;1528;52.550;13.408;2023-02-11T05:41:13;6.30;90.30
3037;DHT22;1528;52.550;13.408;2023-02-11T05:44:00;6.30;90.90
3037;DHT22;1528;52.550;13.408;2023-02-11T05:46:46;6.40;91.10
3037;DHT22;1528;52.550;13.408;2023-02-11T05:49:32;6.40;92.00
3037;DHT22;1528;52.550;13.408;2023-02-11T05:52:17;6.30;94.10
3037;DHT22;1528;52.550;13.408;2023-02-11T05:55:04;6.30;95.70
3037;DHT22;1528;52.550;13.408;2023-02-11T05:57:49;6.30;96.10
3037;DHT22;1528;52.550;13.408;2023-02-11T06:00:37;6.30;96.60
3037;DHT22;1528;52.550;13.408;2023-02-11T06:03:22;6.30;97.20
3037;DHT22;1528;52.550;13.408;2023-02-11T06:06:10;6.20;99.30
3037;DHT22;1528;52.550;13.408;2023-02-11T06:08:55;6.30;99.40
3037;DHT22;1528;52.550;13.408;2023-02-11T06:11:41;6.20;99.90
3037;DHT22;1528;52.550;13.408;2023-02-11T06:14:27;6.30;99.90
3037;DHT22;1528;52.550;13.408;2023-02-11T06:17:14;6.20;99.90
3037;DHT22;1528;52.550;13.408;2023-02-11T06:20:00;6.20;99.90
3037;DHT22;1528;52.550;13.408;2023-02-11T06:22:46;6.30;99.90
3037;DHT22;1528;52.550;13.408;2023-02-11T06:25:31;6.20;99.90
3037;DHT22;1528;52.550;13.408;2023-02-11T06:28:17;6.20;99.90
3037;DHT22;1528;52.550;13.408;2023-02-11T06:31:06;6.30;99.90
3037;DHT22;1528;52.550;13.408;2023-02-11T06:33:54;6.30;99.90
3037;DHT22;1528;52.550;13.408;2023-02-11T06:36:39;6.30;99.90
3037;DHT22;1528;52.550;13.408;2023-02-11T06:39:25;6.30;99.90
3037;DHT22;1528;52.550;13.408;2023-02-11T06:42:11;6.30;99.90
3037;DHT22;1528;52.550;13.408;2023-02-11T06:44:57;6.30;99.90
3037;DHT22;1528;52.550;13.408;2023-02-11T06:47:42;6.40;99.90
3037;DHT22;1528;52.550;13.408;2023-02-11T06:50:29;6.40;99.90
3037;DHT22;1528;52.550;13.408;2023-02-11T06:53:15;6.40;99.90
3037;DHT22;1528;52.550;13.408;2023-02-11T06:56:02;6.50;99.90
3037;DHT22;1528;52.550;13.408;2023-02-11T06:58:52;6.50;99.90
3037;DHT22;1528;52.550;13.408;2023-02-11T07:01:38;6.60;99.90
3037;DHT22;1528;52.550;13.408;2023-02-11T07:04:24;6.60;99.90
3037;DHT22;1528;52.550;13.408;2023-02-11T07:07:11;6.90;99.90
3037;DHT22;1528;52.550;13.408;2023-02-11T07:09:56;6.80;99.90
3037;DHT22;1528;52.550;13.408;2023-02-11T07:12:42;6.70;99.90
3037;DHT22;1528;52.550;13.408;2023-02-11T07:15:28;6.60;99.90
3037;DHT22;1528;52.550;13.408;2023-02-11T07:18:13;6.60;99.90
3037;DHT22;1528;52.550;13.408;2023-02-11T07:20:59;6.70;99.90
3037;DHT22;1528;52.550;13.408;2023-02-11T07:23:50;6.70;99.90
3037;DHT22;1528;52.550;13.408;2023-02-11T07:26:35;6.70;99.90
3037;DHT22;1528;52.550;13.408;2023-02-11T07:29:21;6.80;99.90
3037;DHT22;1528;52.550;13.408;2023-02-11T07:32:07;6.70;99.90
3037;DHT22;1528;52.550;13.408;2023-02-11T07:34:52;6.80;99.90
3037;DHT22;1528;52.550;13.408;2023-02-11T07:37:38;6.90;99.90
3037;DHT22;1528;52.550;13.408;2023-02-11T07:40:25;6.90;99.90
3037;DHT22;1528;52.550;13.408;2023-02-11T07:43:11;7.00;99.90
3037;DHT22;1528;52.550;13.408;2023-02-11T07:45:57;7.00;99.90
3037;DHT22;1528;52.550;13.408;2023-02-11T07:48:42;7.00;99.90
3037;DHT22;1528;52.550;13.408;2023-02-11T07:51:29;7.00;99.90
3037;DHT22;1528;52.550;13.408;2023-02-11T07:54:15;7.20;99.90
3037;DHT22;1528;52.550;13.408;2023-02-11T07:57:02;7.10;99.90
3037;DHT22;1528;52.550;13.408;2023-02-11T07:59:48;7.10;99.90
3037;DHT22;1528;52.550;13.408;2023-02-11T08:02:33;7.00;99.90
3037;DHT22;1528;52.550;13.408;2023-02-11T08:05:19;7.10;99.90
3037;DHT22;1528;52.550;13.408;2023-02-11T08:08:04;7.10;99.90
3037;DHT22;1528;52.550;13.408;2023-02-11T08:10:50;7.20;99.90
3037;DHT22;1528;52.550;13.408;2023-02-11T08:13:37;7.00;99.90
3037;DHT22;1528;52.550;13.408;2023-02-11T08:16:24;7.10;99.90
3037;DHT22;1528;52.550;13.408;2023-02-11T08:19:12;7.10;99.90
3037;DHT22;1528;52.550;13.408;2023-02-11T08:21:58;7.20;99.90
3037;DHT22;1528;52.550;13.408;2023-02-11T08:24:44;7.30;99.90
3037;DHT22;1528;52.550;13.408;2023-02-11T08:27:30;7.10;99.90
3037;DHT22;1528;52.550;13.408;2023-02-11T08:30:17;7.30;99.90
3037;DHT22;1528;52.550;13.408;2023-02-11T08:33:02;7.20;99.90
3037;DHT22;1528;52.550;13.408;2023-02-11T08:35:48;7.20;99.90
3037;DHT22;1528;52.550;13.408;2023-02-11T08:38:34;7.20;99.90
3037;DHT22;1528;52.550;13.408;2023-02-11T08:41:19;7.10;99.90
3037;DHT22;1528;52.550;13.408;2023-02-11T08:44:05;7.10;99.90
3037;DHT22;1528;52.550;13.408;2023-02-11T08:46:52;7.20;99.90
3037;DHT22;1528;52.550;13.408;2023-02-11T08:49:38;7.00;99.90
3037;DHT22;1528;52.550;13.408;2023-02-11T08:52:25;7.10;99.90
3037;DHT22;1528;52.550;13.408;2023-02-11T08:55:11;7.10;99.90
3037;DHT22;1528;52.550;13.408;2023-02-11T08:57:56;7.20;99.90
3037;DHT22;1528;52.550;13.408;2023-02-11T09:00:42;7.20;99.90
3037;DHT22;1528;52.550;13.408;2023-02-11T09:03:29;7.20;99.90
3037;DHT22;1528;52.550;13.408;2023-02-11T09:06:15;7.20;99.90
3037;DHT22;1528;52.550;13.408;2023-02-11T09:09:02;7.20;99.90
3037;DHT22;1528;52.550;13.408;2023-02-11T09:11:47;7.30;99.90
3037;DHT22;1528;52.550;13.408;2023-02-11T09:14:33;7.20;99.90
3037;DHT22;1528;52.550;13.408;2023-02-11T09:17:18;7.20;99.90
3037;DHT22;1528;52.550;13.408;2023-02-11T09:20:06;7.30;99.90
3037;DHT22;1528;52.550;13.408;2023-02-11T09:22:52;7.30;99.90
3037;DHT22;1528;52.550;13.408;2023-02-11T09:25:38;7.20;99.90
3037;DHT22;1528;52.550;13.408;2023-02-11T09:28:24;7.20;99.90
3037;DHT22;1528;52.550;13.408;2023-02-11T09:31:12;7.30;99.90
3037;DHT22;1528;52.550;13.408;2023-02-11T09:33:59;7.30;99.90
3037;DHT22;1528;52.550;13.408;2023-02-11T09:36:46;7.30;99.90
3037;DHT22;1528;52.550;13.408;2023-02-11T09:39:31;7.30;99.90
3037;DHT22;1528;52.550;13.408;2023-02-11T09:42:38;7.50;99.90
3037;DHT22;1528;52.550;13.408;2023-02-11T09:45:26;7.50;99.90
3037;DHT22;1528;52.550;13.408;2023-02-11T09:48:14;7.40;99.90
3037;DHT22;1528;52.550;13.408;2023-02-11T09:51:01;7.40;99.90
3037;DHT22;1528;52.550;13.408;2023-02-11T09:53:52;7.50;99.90
3037;DHT22;1528;52.550;13.408;2023-02-11T09:56:40;7.50;99.90
3037;DHT22;1528;52.550;13.408;2023-02-11T09:59:26;7.60;99.90
3037;DHT22;1528;52.550;13.408;2023-02-11T10:02:18;7.60;99.90
3037;DHT22;1528;52.550;13.408;2023-02-11T10:05:34;7.60;99.90
3037;DHT22;1528;52.550;13.408;2023-02-11T10:08:28;7.50;99.90
3037;DHT22;1528;52.550;13.408;2023-02-11T10:11:20;7.60;99.90
3037;DHT22;1528;52.550;13.408;2023-02-11T10:14:23;7.60;99.90
3037;DHT22;1528;52.550;13.408;2023-02-11T10:17:16;7.40;99.90
3037;DHT22;1528;52.550;13.408;2023-02-11T10:20:18;7.50;99.90
3037;DHT22;1528;52.550;13.408;2023-02-11T10:23:09;7.50;99.90
3037;DHT22;1528;52.550;13.408;2023-02-11T10:25:57;7.40;99.90
3037;DHT22;1528;52.550;13.408;2023-02-11T10:28:46;7.40;99.90
3037;DHT22;1528;52.550;13.408;2023-02-11T10:31:36;7.50;99.90
3037;DHT22;1528;52.550;13.408;2023-02-11T10:34:22;7.50;99.90
3037;DHT22;1528;52.550;13.408;2023-02-11T10:37:09;7.60;99.90
3037;DHT22;1528;52.550;13.408;2023-02-11T10:39:57;7.60;99.90
3037;DHT22;1528;52.550;13.408;2023-02-11T10:42:47;7.50;99.90
3037;DHT22;1528;52.550;13.408;2023-02-11T10:45:37;7.50;99.90
3037;DHT22;1528;52.550;13.408;2023-02-11T10:48:43;7.50;99.90
3037;DHT22;1528;52.550;13.408;2023-02-11T10:51:31;7.60;99.90
3037;DHT22;1528;52.550;13.408;2023-02-11T10:54:18;7.60;99.90
3037;DHT22;1528;52.550;13.408;2023-02-11T10:57:04;7.60;99.90
3037;DHT22;1528;52.550;13.408;2023-02-11T10:59:57;7.60;99.90
3037;DHT22;1528;52.550;13.408;2023-02-11T11:02:50;7.70;99.90
3037;DHT22;1528;52.550;13.408;2023-02-11T11:05:45;7.70;99.90
3037;DHT22;1528;52.550;13.408;2023-02-11T11:08:40;7.70;99.90
3037;DHT22;1528;52.550;13.408;2023-02-11T11:11:26;7.70;99.90
3037;DHT22;1528;52.550;13.408;2023-02-11T11:14:18;7.60;99.90
3037;DHT22;1528;52.550;13.408;2023-02-11T11:17:17;7.60;99.90
3037;DHT22;1528;52.550;13.408;2023-02-11T11:20:22;7.50;99.90
3037;DHT22;1528;52.550;13.408;2023-02-11T11:23:16;7.60;99.90
3037;DHT22;1528;52.550;13.408;2023-02-11T11:26:05;7.50;99.90
3037;DHT22;1528;52.550;13.408;2023-02-11T11:28:56;7.40;99.90
3037;DHT22;1528;52.550;13.408;2023-02-11T11:31:49;7.60;99.90
3037;DHT22;1528;52.550;13.408;2023-02-11T11:34:37;7.60;99.90
3037;DHT22;1528;52.550;13.408;2023-02-11T11:37:26;7.70;99.90
3037;DHT22;1528;52.550;13.408;2023-02-11T11:40:22;7.50;99.90
3037;DHT22;1528;52.550;13.408;2023-02-11T11:43:17;7.60;99.90
3037;DHT22;1528;52.550;13.408;2023-02-11T11:46:03;7.70;99.90
3037;DHT22;1528;52.550;13.408;2023-02-11T11:48:50;7.70;99.90
3037;DHT22;1528;52.550;13.408;2023-02-11T11:51:41;7.70;99.90
3037;DHT22;1528;52.550;13.408;2023-02-11T11:54:30;7.70;99.90
3037;DHT22;1528;52.550;13.408;2023-02-11T11:57:21;7.80;99.90
3037;DHT22;1528;52.550;13.408;2023-02-11T12:00:15;7.80;99.90
3037;DHT22;1528;52.550;13.408;2023-02-11T12:03:25;7.90;99.90
3037;DHT22;1528;52.550;13.408;2023-02-11T12:06:27;7.90;99.90
3037;DHT22;1528;52.550;13.408;2023-02-11T12:09:25;8.00;99.90
3037;DHT22;1528;52.550;13.408;2023-02-11T12:12:36;7.80;99.90
3037;DHT22;1528;52.550;13.408;2023-02-11T12:15:31;8.00;99.90
3037;DHT22;1528;52.550;13.408;2023-02-11T12:21:47;8.10;99.90
3037;DHT22;1528;52.550;13.408;2023-02-11T12:24:55;8.20;99.90
3037;DHT22;1528;52.550;13.408;2023-02-11T12:27:52;8.20;99.90
3037;DHT22;1528;52.550;13.408;2023-02-11T12:31:04;8.20;99.90
3037;DHT22;1528;52.550;13.408;2023-02-11T12:34:07;8.20;99.90
3037;DHT22;1528;52.550;13.408;2023-02-11T12:37:06;8.30;99.90
3037;DHT22;1528;52.550;13.408;2023-02-11T12:40:02;8.30;99.90
3037;DHT22;1528;52.550;13.408;2023-02-11T12:43:03;8.30;99.90
3037;DHT22;1528;52.550;13.408;2023-02-11T12:46:23;8.20;99.90
3037;DHT22;1528;52.550;13.408;2023-02-11T12:49:30;8.30;99.90
3037;DHT22;1528;52.550;13.408;2023-02-11T12:52:30;8.30;99.90
3037;DHT22;1528;52.550;13.408;2023-02-11T12:59:02;8.30;99.90
3037;DHT22;1528;52.550;13.408;2023-02-11T13:01:51;8.30;99.90
3037;DHT22;1528;52.550;13.408;2023-02-11T13:04:39;8.30;99.90
3037;DHT22;1528;52.550;13.408;2023-02-11T13:07:28;8.40;99.90
3037;DHT22;1528;52.550;13.408;2023-02-11T13:10:23;8.40;99.90
3037;DHT22;1528;52.550;13.408;2023-02-11T13:13:14;8.30;99.90
3037;DHT22;1528;52.550;13.408;2023-02-11T13:16:06;8.30;99.90
3037;DHT22;1528;52.550;13.408;2023-02-11T13:18:55;8.40;99.90
3037;DHT22;1528;52.550;13.408;2023-02-11T13:22:04;8.40;99.90
3037;DHT22;1528;52.550;13.408;2023-02-11T13:24:55;8.40;99.90
3037;DHT22;1528;52.550;13.408;2023-02-11T13:27:50;8.50;99.90
3037;DHT22;1528;52.550;13.408;2023-02-11T13:30:42;8.30;99.90
3037;DHT22;1528;52.550;13.408;2023-02-11T13:33:33;8.30;99.90
3037;DHT22;1528;52.550;13.408;2023-02-11T13:36:23;8.50;99.90
3037;DHT22;1528;52.550;13.408;2023-02-11T13:39:19;8.50;99.90
3037;DHT22;1528;52.550;13.408;2023-02-11T13:42:10;8.60;99.90
3037;DHT22;1528;52.550;13.408;2023-02-11T13:45:00;8.50;99.90
3037;DHT22;1528;52.550;13.408;2023-02-11T13:47:45;8.60;99.90
3037;DHT22;1528;52.550;13.408;2023-02-11T13:50:38;8.50;99.90
3037;DHT22;1528;52.550;13.408;2023-02-11T13:53:24;8.60;99.90
3037;DHT22;1528;52.550;13.408;2023-02-11T13:56:29;8.60;99.90
3037;DHT22;1528;52.550;13.408;2023-02-11T14:02:36;8.50;99.90
3037;DHT22;1528;52.550;13.408;2023-02-11T14:06:10;8.50;99.90
3037;DHT22;1528;52.550;13.408;2023-02-11T14:09:34;8.40;99.90
3037;DHT22;1528;52.550;13.408;2023-02-11T14:12:31;8.50;99.90
3037;DHT22;1528;52.550;13.408;2023-02-11T14:15:25;8.50;99.90
3037;DHT22;1528;52.550;13.408;2023-02-11T14:18:36;8.50;99.90
3037;DHT22;1528;52.550;13.408;2023-02-11T14:21:29;8.50;99.90
3037;DHT22;1528;52.550;13.408;2023-02-11T14:24:39;8.50;99.90
3037;DHT22;1528;52.550;13.408;2023-02-11T14:27:35;8.40;99.90
3037;DHT22;1528;52.550;13.408;2023-02-11T14:30:41;8.30;99.90
3037;DHT22;1528;52.550;13.408;2023-02-11T14:37:02;8.40;99.90
3037;DHT22;1528;52.550;13.408;2023-02-11T14:39:57;8.30;99.90
3037;DHT22;1528;52.550;13.408;2023-02-11T14:42:44;8.30;99.90
3037;DHT22;1528;52.550;13.408;2023-02-11T14:45:30;8.30;99.90
3037;DHT22;1528;52.550;13.408;2023-02-11T14:48:17;8.40;99.90
3037;DHT22;1528;52.550;13.408;2023-02-11T14:51:05;8.40;99.90
3037;DHT22;1528;52.550;13.408;2023-02-11T14:53:56;8.50;99.90
3037;DHT22;1528;52.550;13.408;2023-02-11T14:56:44;8.50;99.90
3037;DHT22;1528;52.550;13.408;2023-02-11T14:59:31;8.40;99.90
3037;DHT22;1528;52.550;13.408;2023-02-11T15:02:21;8.40;99.90
3037;DHT22;1528;52.550;13.408;2023-02-11T15:05:15;8.30;99.90
3037;DHT22;1528;52.550;13.408;2023-02-11T15:08:03;8.40;99.90
3037;DHT22;1528;52.550;13.408;2023-02-11T15:10:52;8.30;99.90
3037;DHT22;1528;52.550;13.408;2023-02-11T15:13:38;8.30;99.90
3037;DHT22;1528;52.550;13.408;2023-02-11T15:16:28;8.30;99.90
3037;DHT22;1528;52.550;13.408;2023-02-11T15:19:19;8.40;99.90
3037;DHT22;1528;52.550;13.408;2023-02-11T15:22:13;8.40;99.90
3037;DHT22;1528;52.550;13.408;2023-02-11T15:25:07;8.20;99.90
3037;DHT22;1528;52.550;13.408;2023-02-11T15:27:56;8.40;99.90
3037;DHT22;1528;52.550;13.408;2023-02-11T15:30:42;8.50;99.90
3037;DHT22;1528;52.550;13.408;2023-02-11T15:33:28;8.50;99.90
3037;DHT22;1528;52.550;13.408;2023-02-11T15:36:16;8.40;99.90
3037;DHT22;1528;52.550;13.408;2023-02-11T15:39:17;8.40;99.90
3037;DHT22;1528;52.550;13.408;2023-02-11T15:42:21;8.30;99.90
3037;DHT22;1528;52.550;13.408;2023-02-11T15:45:16;8.40;99.90
3037;DHT22;1528;52.550;13.408;2023-02-11T15:48:11;8.50;99.90
3037;DHT22;1528;52.550;13.408;2023-02-11T15:51:01;8.40;99.90
3037;DHT22;1528;52.550;13.408;2023-02-11T15:53:50;8.50;99.90
3037;DHT22;1528;52.550;13.408;2023-02-11T15:56:41;8.40;99.90
3037;DHT22;1528;52.550;13.408;2023-02-11T15:59:29;8.40;99.90
3037;DHT22;1528;52.550;13.408;2023-02-11T16:02:21;8.30;99.90
3037;DHT22;1528;52.550;13.408;2023-02-11T16:05:25;8.30;99.90
3037;DHT22;1528;52.550;13.408;2023-02-11T16:08:20;8.50;99.90
3037;DHT22;1528;52.550;13.408;2023-02-11T16:11:22;8.40;99.90
3037;DHT22;1528;52.550;13.408;2023-02-11T16:14:21;8.40;99.90
3037;DHT22;1528;52.550;13.408;2023-02-11T16:17:09;8.30;99.90
3037;DHT22;1528;52.550;13.408;2023-02-11T16:19:56;8.40;99.90
3037;DHT22;1528;52.550;13.408;2023-02-11T16:22:45;8.30;99.90
3037;DHT22;1528;52.550;13.408;2023-02-11T16:25:33;8.40;99.90
3037;DHT22;1528;52.550;13.408;2023-02-11T16:28:19;8.30;99.90
3037;DHT22;1528;52.550;13.408;2023-02-11T16:31:05;8.40;99.90
3037;DHT22;1528;52.550;13.408;2023-02-11T16:33:52;8.40;99.90
3037;DHT22;1528;52.550;13.408;2023-02-11T16:36:39;8.40;99.90
3037;DHT22;1528;52.550;13.408;2023-02-11T16:39:25;8.40;99.90
3037;DHT22;1528;52.550;13.408;2023-02-11T16:42:11;8.50;99.90
3037;DHT22;1528;52.550;13.408;2023-02-11T16:44:56;8.60;99.90
3037;DHT22;1528;52.550;13.408;2023-02-11T16:47:43;8.50;99.90
3037;DHT22;1528;52.550;13.408;2023-02-11T16:50:29;8.60;99.90
3037;DHT22;1528;52.550;13.408;2023-02-11T16:53:20;8.50;99.90
3037;DHT22;1528;52.550;13.408;2023-02-11T16:56:08;8.70;99.90
3037;DHT22;1528;52.550;13.408;2023-02-11T16:58:54;8.60;99.90
3037;DHT22;1528;52.550;13.408;2023-02-11T17:01:41;8.60;99.90
3037;DHT22;1528;52.550;13.408;2023-02-11T17:04:29;8.60;99.90
3037;DHT22;1528;52.550;13.408;2023-02-11T17:07:16;8.70;99.90
3037;DHT22;1528;52.550;13.408;2023-02-11T17:10:05;8.70;99.90
3037;DHT22;1528;52.550;13.408;2023-02-11T17:12:57;8.70;99.90
3037;DHT22;1528;52.550;13.408;2023-02-11T17:15:43;8.70;99.90
3037;DHT22;1528;52.550;13.408;2023-02-11T17:18:28;8.80;99.90
3037;DHT22;1528;52.550;13.408;2023-02-11T17:21:14;8.70;99.90
3037;DHT22;1528;52.550;13.408;2023-02-11T17:24:00;8.70;99.90
3037;DHT22;1528;52.550;13.408;2023-02-11T17:26:48;8.70;99.90
3037;DHT22;1528;52.550;13.408;2023-02-11T17:29:34;8.70;99.90
3037;DHT22;1528;52.550;13.408;2023-02-11T17:32:19;8.70;99.90
3037;DHT22;1528;52.550;13.408;2023-02-11T17:35:06;8.80;99.90
3037;DHT22;1528;52.550;13.408;2023-02-11T17:37:52;8.80;99.90
3037;DHT22;1528;52.550;13.408;2023-02-11T17:40:38;8.90;99.90
3037;DHT22;1528;52.550;13.408;2023-02-11T17:43:25;8.90;99.90
3037;DHT22;1528;52.550;13.408;2023-02-11T17:46:10;8.90;99.90
3037;DHT22;1528;52.550;13.408;2023-02-11T17:48:57;8.90;99.90
3037;DHT22;1528;52.550;13.408;2023-02-11T17:51:43;8.90;99.90
3037;DHT22;1528;52.550;13.408;2023-02-11T17:54:29;8.90;99.90
3037;DHT22;1528;52.550;13.408;2023-02-11T17:57:15;8.90;99.90
3037;DHT22;1528;52.550;13.408;2023-02-11T18:00:03;8.80;99.90
3037;DHT22;1528;52.550;13.408;2023-02-11T18:02:50;8.90;99.90
3037;DHT22;1528;52.550;13.408;2023-02-11T18:05:36;8.90;99.90
3037;DHT22;1528;52.550;13.408;2023-02-11T18:08:22;8.90;99.90
3037;DHT22;1528;52.550;13.408;2023-02-11T18:11:08;9.00;99.90
3037;DHT22;1528;52.550;13.408;2023-02-11T18:13:53;9.00;99.90
3037;DHT22;1528;52.550;13.408;2023-02-11T18:16:40;9.00;99.90
3037;DHT22;1528;52.550;13.408;2023-02-11T18:19:28;9.10;99.90
3037;DHT22;1528;52.550;13.408;2023-02-11T18:22:16;9.10;99.90
3037;DHT22;1528;52.550;13.408;2023-02-11T18:25:02;9.20;99.90
3037;DHT22;1528;52.550;13.408;2023-02-11T18:27:47;9.10;99.90
3037;DHT22;1528;52.550;13.408;2023-02-11T18:30:33;9.10;99.90
3037;DHT22;1528;52.550;13.408;2023-02-11T18:33:20;9.20;99.90
3037;DHT22;1528;52.550;13.408;2023-02-11T18:36:07;9.10;99.90
3037;DHT22;1528;52.550;13.408;2023-02-11T18:38:52;9.10;99.90
3037;DHT22;1528;52.550;13.408;2023-02-11T18:41:40;9.10;99.90